sensor_id;sensor_type;location;lat;lon;timestamp;pressure;altitude;pressure_sealevel;temperature;humidity
38054;BME280;23859;50.672;7.164;2023-04-08T00:00:08;59126.41;;;10.02;100.00
38054;BME280;23859;50.672;7.164;2023-04-08T00:02:34;59129.53;;;10.02;100.00
38054;BME280;23859;50.672;7.164;2023-04-08T00:05:00;59128.22;;;9.98;100.00
38054;BME280;23859;50.672;7.164;2023-04-08T00:07:27;59141.50;;;10.12;100.00
38054;BME280;23859;50.672;7.164;2023-04-08T00:09:53;59139.03;;;10.09;100.00
38054;BME280;23859;50.672;7.164;2023-04-08T00:12:19;59139.22;;;10.07;100.00
38054;BME280;23859;50.672;7.164;2023-04-08T00:14:45;59135.91;;;10.09;100.00
38054;BME280;23859;50.672;7.164;2023-04-08T00:17:11;59136.56;;;10.07;100.00
38054;BME280;23859;50.672;7.164;2023-04-08T00:19:37;59139.22;;;10.07;100.00
38054;BME280;23859;50.672;7.164;2023-04-08T00:22:03;59133.78;;;10.01;100.00
38054;BME280;23859;50.672;7.164;2023-04-08T00:24:29;59150.66;;;10.24;100.00
38054;BME280;23859;50.672;7.164;2023-04-08T00:26:55;59163.44;;;10.37;100.00
38054;BME280;23859;50.672;7.164;2023-04-08T00:29:22;59160.03;;;10.25;100.00
38054;BME280;23859;50.672;7.164;2023-04-08T00:31:48;59147.41;;;10.18;100.00
38054;BME280;23859;50.672;7.164;2023-04-08T00:34:14;59142.78;;;10.16;100.00
38054;BME280;23859;50.672;7.164;2023-04-08T00:36:40;59143.78;;;10.17;100.00
38054;BME280;23859;50.672;7.164;2023-04-08T00:39:06;59142.97;;;10.13;100.00
38054;BME280;23859;50.672;7.164;2023-04-08T00:41:35;59132.66;;;10.03;100.00
38054;BME280;23859;50.672;7.164;2023-04-08T00:44:01;59156.88;;;10.25;100.00
38054;BME280;23859;50.672;7.164;2023-04-08T00:46:27;59149.34;;;10.20;100.00
38054;BME280;23859;50.672;7.164;2023-04-08T00:48:54;59164.44;;;10.30;100.00
38054;BME280;23859;50.672;7.164;2023-04-08T00:51:20;59165.25;;;10.33;100.00
38054;BME280;23859;50.672;7.164;2023-04-08T00:53:46;59167.72;;;10.36;100.00
38054;BME280;23859;50.672;7.164;2023-04-08T00:56:12;59171.31;;;10.37;100.00
38054;BME280;23859;50.672;7.164;2023-04-08T00:58:39;59160.50;;;10.34;100.00
38054;BME280;23859;50.672;7.164;2023-04-08T01:01:11;59146.06;;;10.22;100.00
38054;BME280;23859;50.672;7.164;2023-04-08T01:07:06;59132.31;;;10.00;100.00
38054;BME280;23859;50.672;7.164;2023-04-08T01:09:34;59129.22;;;9.99;100.00
38054;BME280;23859;50.672;7.164;2023-04-08T01:12:05;59122.63;;;9.95;100.00
38054;BME280;23859;50.672;7.164;2023-04-08T01:14:37;59140.03;;;10.10;100.00
38054;BME280;23859;50.672;7.164;2023-04-08T01:17:04;59094.59;;;9.67;100.00
38054;BME280;23859;50.672;7.164;2023-04-08T01:19:33;59133.94;;;10.07;100.00
38054;BME280;23859;50.672;7.164;2023-04-08T01:24:49;59130.84;;;9.98;100.00
38054;BME280;23859;50.672;7.164;2023-04-08T01:27:18;59126.09;;;9.91;100.00
38054;BME280;23859;50.672;7.164;2023-04-08T01:29:47;59118.53;;;9.94;100.00
38054;BME280;23859;50.672;7.164;2023-04-08T01:32:14;59124.94;;;9.93;100.00
38054;BME280;23859;50.672;7.164;2023-04-08T01:34:41;59152.31;;;10.23;100.00
38054;BME280;23859;50.672;7.164;2023-04-08T01:37:08;59149.19;;;10.22;100.00
38054;BME280;23859;50.672;7.164;2023-04-08T01:39:35;59140.00;;;10.18;100.00
38054;BME280;23859;50.672;7.164;2023-04-08T01:42:02;59142.66;;;10.10;100.00
38054;BME280;23859;50.672;7.164;2023-04-08T01:44:29;59139.22;;;10.07;100.00
38054;BME280;23859;50.672;7.164;2023-04-08T01:46:58;59130.34;;;9.98;100.00
38054;BME280;23859;50.672;7.164;2023-04-08T01:49:24;59130.84;;;9.98;100.00
38054;BME280;23859;50.672;7.164;2023-04-08T01:51:51;59123.28;;;9.86;100.00
38054;BME280;23859;50.672;7.164;2023-04-08T01:54:18;59099.69;;;9.70;100.00
38054;BME280;23859;50.672;7.164;2023-04-08T01:56:46;59104.59;;;9.75;100.00
38054;BME280;23859;50.672;7.164;2023-04-08T01:59:14;59116.41;;;9.87;100.00
38054;BME280;23859;50.672;7.164;2023-04-08T02:01:45;59107.06;;;9.77;100.00
38054;BME280;23859;50.672;7.164;2023-04-08T02:04:12;59116.25;;;9.81;100.00
38054;BME280;23859;50.672;7.164;2023-04-08T02:06:38;59099.38;;;9.67;100.00
38054;BME280;23859;50.672;7.164;2023-04-08T02:09:05;59082.97;;;9.53;100.00
38054;BME280;23859;50.672;7.164;2023-04-08T02:11:31;59074.97;;;9.47;100.00
38054;BME280;23859;50.672;7.164;2023-04-08T02:13:57;59091.69;;;9.56;100.00
38054;BME280;23859;50.672;7.164;2023-04-08T02:19:23;59069.56;;;9.42;100.00
38054;BME280;23859;50.672;7.164;2023-04-08T02:21:51;59078.75;;;9.46;100.00
38054;BME280;23859;50.672;7.164;2023-04-08T02:24:20;59065.16;;;9.37;100.00
38054;BME280;23859;50.672;7.164;2023-04-08T02:26:48;59062.53;;;9.29;100.00
38054;BME280;23859;50.672;7.164;2023-04-08T02:29:16;59065.97;;;9.33;100.00
38054;BME280;23859;50.672;7.164;2023-04-08T02:31:44;59062.84;;;9.32;100.00
38054;BME280;23859;50.672;7.164;2023-04-08T02:34:12;59071.88;;;9.39;100.00
38054;BME280;23859;50.672;7.164;2023-04-08T02:36:38;59092.00;;;9.59;100.00
38054;BME280;23859;50.672;7.164;2023-04-08T02:39:06;59077.44;;;9.42;100.00
38054;BME280;23859;50.672;7.164;2023-04-08T02:41:32;59083.31;;;9.48;100.00
38054;BME280;23859;50.672;7.164;2023-04-08T02:43:58;59086.13;;;9.53;100.00
38054;BME280;23859;50.672;7.164;2023-04-08T02:46:24;59069.56;;;9.42;100.00
38054;BME280;23859;50.672;7.164;2023-04-08T02:48:50;59063.69;;;9.36;100.00
38054;BME280;23859;50.672;7.164;2023-04-08T02:51:16;59060.88;;;9.30;100.00
38054;BME280;23859;50.672;7.164;2023-04-08T02:53:42;59050.91;;;9.23;100.00
38054;BME280;23859;50.672;7.164;2023-04-08T02:56:11;59055.66;;;9.23;100.00
38054;BME280;23859;50.672;7.164;2023-04-08T02:58:37;59054.00;;;9.24;100.00
38054;BME280;23859;50.672;7.164;2023-04-08T03:01:03;59055.00;;;9.25;100.00
38054;BME280;23859;50.672;7.164;2023-04-08T03:03:29;59051.53;;;9.29;100.00
38054;BME280;23859;50.672;7.164;2023-04-08T03:05:56;59052.53;;;9.22;100.00
38054;BME280;23859;50.672;7.164;2023-04-08T03:08:23;59054.66;;;9.29;100.00
38054;BME280;23859;50.672;7.164;2023-04-08T03:10:49;59062.34;;;9.32;100.00
38054;BME280;23859;50.672;7.164;2023-04-08T03:13:16;59052.88;;;9.25;100.00
38054;BME280;23859;50.672;7.164;2023-04-08T03:15:42;59040.75;;;9.18;100.00
38054;BME280;23859;50.672;7.164;2023-04-08T03:18:08;59049.59;;;9.19;100.00
38054;BME280;23859;50.672;7.164;2023-04-08T03:20:34;59041.91;;;9.17;100.00
38054;BME280;23859;50.672;7.164;2023-04-08T03:23:00;59049.09;;;9.19;100.00
38054;BME280;23859;50.672;7.164;2023-04-08T03:25:27;59048.44;;;9.13;100.00
38054;BME280;23859;50.672;7.164;2023-04-08T03:27:54;59049.78;;;9.17;100.00
38054;BME280;23859;50.672;7.164;2023-04-08T03:30:20;59048.94;;;9.21;100.00
38054;BME280;23859;50.672;7.164;2023-04-08T03:32:46;59055.31;;;9.27;100.00
38054;BME280;23859;50.672;7.164;2023-04-08T03:35:12;59054.00;;;9.24;100.00
38054;BME280;23859;50.672;7.164;2023-04-08T03:37:38;59063.50;;;9.30;100.00
38054;BME280;23859;50.672;7.164;2023-04-08T03:40:05;59061.38;;;9.31;100.00
38054;BME280;23859;50.672;7.164;2023-04-08T03:42:31;59056.47;;;9.26;100.00
38054;BME280;23859;50.672;7.164;2023-04-08T03:44:58;59066.44;;;9.33;100.00
38054;BME280;23859;50.672;7.164;2023-04-08T03:47:24;59067.91;;;9.43;100.00
38054;BME280;23859;50.672;7.164;2023-04-08T03:49:52;59063.50;;;9.30;100.00
38054;BME280;23859;50.672;7.164;2023-04-08T03:52:19;59061.06;;;9.28;100.00
38054;BME280;23859;50.672;7.164;2023-04-08T03:54:45;59052.53;;;9.22;100.00
38054;BME280;23859;50.672;7.164;2023-04-08T03:57:11;59054.50;;;9.24;100.00
38054;BME280;23859;50.672;7.164;2023-04-08T03:59:37;59050.91;;;9.23;100.00
38054;BME280;23859;50.672;7.164;2023-04-08T04:02:05;59057.28;;;9.29;100.00
38054;BME280;23859;50.672;7.164;2023-04-08T04:04:32;59066.44;;;9.33;100.00
38054;BME280;23859;50.672;7.164;2023-04-08T04:06:58;59062.53;;;9.29;100.00
38054;BME280;23859;50.672;7.164;2023-04-08T04:09:24;59048.75;;;9.24;100.00
38054;BME280;23859;50.672;7.164;2023-04-08T04:11:51;59056.47;;;9.26;100.00
38054;BME280;23859;50.672;7.164;2023-04-08T04:14:17;59059.91;;;9.29;100.00
38054;BME280;23859;50.672;7.164;2023-04-08T04:16:43;59070.06;;;9.34;100.00
38054;BME280;23859;50.672;7.164;2023-04-08T04:19:09;59058.91;;;9.28;100.00
38054;BME280;23859;50.672;7.164;2023-04-08T04:21:35;59053.84;;;9.26;100.00
38054;BME280;23859;50.672;7.164;2023-04-08T04:24:01;59052.38;;;9.25;100.00
38054;BME280;23859;50.672;7.164;2023-04-08T04:26:27;59057.13;;;9.24;100.00
38054;BME280;23859;50.672;7.164;2023-04-08T04:28:53;59057.94;;;9.27;100.00
38054;BME280;23859;50.672;7.164;2023-04-08T04:31:23;59045.16;;;9.23;100.00
38054;BME280;23859;50.672;7.164;2023-04-08T04:33:53;59058.75;;;9.31;100.00
38054;BME280;23859;50.672;7.164;2023-04-08T04:36:19;59076.59;;;9.46;100.00
38054;BME280;23859;50.672;7.164;2023-04-08T04:38:45;59082.66;;;9.50;100.00
38054;BME280;23859;50.672;7.164;2023-04-08T04:41:11;59087.72;;;9.60;100.00
38054;BME280;23859;50.672;7.164;2023-04-08T04:43:37;59083.81;;;9.48;100.00
38054;BME280;23859;50.672;7.164;2023-04-08T04:46:03;59092.00;;;9.59;100.00
38054;BME280;23859;50.672;7.164;2023-04-08T04:48:32;59082.19;;;9.49;100.00
38054;BME280;23859;50.672;7.164;2023-04-08T04:50:59;59085.44;;;9.55;100.00
38054;BME280;23859;50.672;7.164;2023-04-08T04:53:29;59075.31;;;9.42;100.00
38054;BME280;23859;50.672;7.164;2023-04-08T04:55:55;59066.63;;;9.39;100.00
38054;BME280;23859;50.672;7.164;2023-04-08T04:58:21;59064.00;;;9.31;100.00
38054;BME280;23859;50.672;7.164;2023-04-08T05:00:47;59054.34;;;9.27;100.00
38054;BME280;23859;50.672;7.164;2023-04-08T05:03:13;59052.38;;;9.25;100.00
38054;BME280;23859;50.672;7.164;2023-04-08T05:05:39;59053.69;;;9.21;100.00
38054;BME280;23859;50.672;7.164;2023-04-08T05:08:07;59033.22;;;9.05;100.00
38054;BME280;23859;50.672;7.164;2023-04-08T05:10:33;59052.38;;;9.25;100.00
38054;BME280;23859;50.672;7.164;2023-04-08T05:12:59;58990.00;;;8.61;100.00
38054;BME280;23859;50.672;7.164;2023-04-08T05:15:25;59059.25;;;9.31;100.00
38054;BME280;23859;50.672;7.164;2023-04-08T05:17:51;59070.06;;;9.42;100.00
38054;BME280;23859;50.672;7.164;2023-04-08T05:20:17;59084.81;;;9.49;100.00
38054;BME280;23859;50.672;7.164;2023-04-08T05:22:43;59077.59;;;9.47;100.00
38054;BME280;23859;50.672;7.164;2023-04-08T05:25:10;59091.03;;;9.58;100.00
38054;BME280;23859;50.672;7.164;2023-04-08T05:27:36;59082.19;;;9.49;100.00
38054;BME280;23859;50.672;7.164;2023-04-08T05:30:03;59076.94;;;9.49;100.00
38054;BME280;23859;50.672;7.164;2023-04-08T05:32:29;59083.16;;;9.58;100.00
38054;BME280;23859;50.672;7.164;2023-04-08T05:34:55;59079.88;;;9.52;100.00
38054;BME280;23859;50.672;7.164;2023-04-08T05:37:21;59087.75;;;9.52;100.00
38054;BME280;23859;50.672;7.164;2023-04-08T05:39:47;59089.69;;;9.62;100.00
38054;BME280;23859;50.672;7.164;2023-04-08T05:42:13;59095.28;;;9.65;100.00
38054;BME280;23859;50.672;7.164;2023-04-08T05:44:39;59087.06;;;9.62;100.00
38054;BME280;23859;50.672;7.164;2023-04-08T05:47:06;59094.94;;;9.62;100.00
38054;BME280;23859;50.672;7.164;2023-04-08T05:49:33;59088.88;;;9.59;100.00
38054;BME280;23859;50.672;7.164;2023-04-08T05:51:59;59022.09;;;8.91;100.00
38054;BME280;23859;50.672;7.164;2023-04-08T05:54:25;59094.94;;;9.62;100.00
38054;BME280;23859;50.672;7.164;2023-04-08T05:56:51;59108.38;;;9.81;100.00
38054;BME280;23859;50.672;7.164;2023-04-08T05:59:17;59114.25;;;9.87;100.00
38054;BME280;23859;50.672;7.164;2023-04-08T06:01:43;59108.72;;;9.76;100.00
38054;BME280;23859;50.672;7.164;2023-04-08T06:04:09;59123.78;;;9.94;100.00
38054;BME280;23859;50.672;7.164;2023-04-08T06:06:37;59133.94;;;10.07;100.00
38054;BME280;23859;50.672;7.164;2023-04-08T06:09:06;59139.84;;;10.05;100.00
38054;BME280;23859;50.672;7.164;2023-04-08T06:11:32;59133.31;;;10.01;100.00
38054;BME280;23859;50.672;7.164;2023-04-08T06:13:58;59133.63;;;10.04;100.00
38054;BME280;23859;50.672;7.164;2023-04-08T06:16:24;59132.31;;;10.00;100.00
38054;BME280;23859;50.672;7.164;2023-04-08T06:18:50;59117.69;;;9.91;100.00
38054;BME280;23859;50.672;7.164;2023-04-08T06:21:16;59126.06;;;9.99;100.00
38054;BME280;23859;50.672;7.164;2023-04-08T06:23:42;59132.16;;;10.02;100.00
38054;BME280;23859;50.672;7.164;2023-04-08T06:26:08;59138.06;;;10.08;100.00
38054;BME280;23859;50.672;7.164;2023-04-08T06:28:34;59131.97;;;10.05;100.00
38054;BME280;23859;50.672;7.164;2023-04-08T06:31:01;59146.88;;;10.17;100.00
38054;BME280;23859;50.672;7.164;2023-04-08T06:33:27;59150.34;;;10.21;100.00
38054;BME280;23859;50.672;7.164;2023-04-08T06:36:01;59150.50;;;10.18;100.00
38054;BME280;23859;50.672;7.164;2023-04-08T06:38:28;59161.66;;;10.32;100.00
38054;BME280;23859;50.672;7.164;2023-04-08T06:40:54;59151.63;;;10.25;100.00
38054;BME280;23859;50.672;7.164;2023-04-08T06:43:21;59156.88;;;10.25;100.00
38054;BME280;23859;50.672;7.164;2023-04-08T06:45:47;59171.78;;;10.45;100.00
38054;BME280;23859;50.672;7.164;2023-04-08T06:48:13;59116.88;;;9.87;100.00
38054;BME280;23859;50.672;7.164;2023-04-08T06:50:39;59180.81;;;10.52;100.00
38054;BME280;23859;50.672;7.164;2023-04-08T06:53:05;59193.13;;;10.64;100.00
38054;BME280;23859;50.672;7.164;2023-04-08T06:55:31;59173.78;;;10.47;100.00
38054;BME280;23859;50.672;7.164;2023-04-08T06:57:57;59181.16;;;10.55;100.00
38054;BME280;23859;50.672;7.164;2023-04-08T07:00:23;59171.78;;;10.45;100.00
38054;BME280;23859;50.672;7.164;2023-04-08T07:02:49;59175.25;;;10.49;100.00
38054;BME280;23859;50.672;7.164;2023-04-08T07:05:15;59161.47;;;10.35;100.00
38054;BME280;23859;50.672;7.164;2023-04-08T07:07:41;59153.25;;;10.32;100.00
38054;BME280;23859;50.672;7.164;2023-04-08T07:10:08;59191.97;;;10.65;100.00
38054;BME280;23859;50.672;7.164;2023-04-08T07:12:34;59220.53;;;10.86;100.00
38054;BME280;23859;50.672;7.164;2023-04-08T07:15:00;59226.06;;;10.97;100.00
38054;BME280;23859;50.672;7.164;2023-04-08T07:17:26;59217.53;;;10.91;100.00
38054;BME280;23859;50.672;7.164;2023-04-08T07:19:52;59217.53;;;10.91;100.00
38054;BME280;23859;50.672;7.164;2023-04-08T07:22:18;59236.09;;;11.05;100.00
38054;BME280;23859;50.672;7.164;2023-04-08T07:24:45;59257.88;;;11.32;100.00
38054;BME280;23859;50.672;7.164;2023-04-08T07:27:15;59264.28;;;11.38;100.00
38054;BME280;23859;50.672;7.164;2023-04-08T07:29:41;59283.50;;;11.58;100.00
38054;BME280;23859;50.672;7.164;2023-04-08T07:32:07;59300.91;;;11.73;100.00
38054;BME280;23859;50.672;7.164;2023-04-08T07:34:36;59297.78;;;11.72;100.00
38054;BME280;23859;50.672;7.164;2023-04-08T07:37:02;59318.63;;;11.91;100.00
38054;BME280;23859;50.672;7.164;2023-04-08T07:39:28;59292.03;;;11.72;100.00
38054;BME280;23859;50.672;7.164;2023-04-08T07:41:54;59294.50;;;11.66;100.00
38054;BME280;23859;50.672;7.164;2023-04-08T07:44:20;59286.78;;;11.64;100.00
38054;BME280;23859;50.672;7.164;2023-04-08T07:46:46;59278.56;;;11.53;100.00
38054;BME280;23859;50.672;7.164;2023-04-08T07:49:16;59301.75;;;11.68;100.00
38054;BME280;23859;50.672;7.164;2023-04-08T07:51:42;59294.50;;;11.66;100.00
38054;BME280;23859;50.672;7.164;2023-04-08T07:54:08;59307.66;;;11.82;100.00
38054;BME280;23859;50.672;7.164;2023-04-08T07:56:37;59300.56;;;11.78;100.00
38054;BME280;23859;50.672;7.164;2023-04-08T07:59:05;59325.00;;;12.05;100.00
38054;BME280;23859;50.672;7.164;2023-04-08T08:01:31;59364.97;;;12.37;100.00
38054;BME280;23859;50.672;7.164;2023-04-08T08:04:00;59426.41;;;13.02;97.21
38054;BME280;23859;50.672;7.164;2023-04-08T08:06:26;59418.88;;;12.89;95.79
38054;BME280;23859;50.672;7.164;2023-04-08T08:08:57;59438.59;;;13.09;97.21
38054;BME280;23859;50.672;7.164;2023-04-08T08:11:23;59457.47;;;13.33;94.67
38054;BME280;23859;50.672;7.164;2023-04-08T08:13:49;59459.28;;;13.37;92.78
38054;BME280;23859;50.672;7.164;2023-04-08T08:16:15;59447.13;;;13.23;94.02
38054;BME280;23859;50.672;7.164;2023-04-08T08:18:41;59440.88;;;13.14;92.72
38054;BME280;23859;50.672;7.164;2023-04-08T08:21:08;59387.78;;;12.58;96.53
38054;BME280;23859;50.672;7.164;2023-04-08T08:23:34;59384.66;;;12.57;97.30
38054;BME280;23859;50.672;7.164;2023-04-08T08:26:02;59382.03;;;12.57;97.58
38054;BME280;23859;50.672;7.164;2023-04-08T08:28:29;59408.63;;;12.84;96.66
38054;BME280;23859;50.672;7.164;2023-04-08T08:30:55;59397.78;;;12.73;98.19
38054;BME280;23859;50.672;7.164;2023-04-08T08:33:21;59415.91;;;12.86;96.14
38054;BME280;23859;50.672;7.164;2023-04-08T08:35:47;59430.19;;;13.00;94.60
38054;BME280;23859;50.672;7.164;2023-04-08T08:38:13;59419.19;;;12.92;93.91
38054;BME280;23859;50.672;7.164;2023-04-08T08:40:39;59429.06;;;13.02;92.73
38054;BME280;23859;50.672;7.164;2023-04-08T08:43:05;59400.91;;;12.73;94.16
38054;BME280;23859;50.672;7.164;2023-04-08T08:45:32;59374.81;;;12.47;97.89
38054;BME280;23859;50.672;7.164;2023-04-08T08:47:58;59371.19;;;12.46;96.82
38054;BME280;23859;50.672;7.164;2023-04-08T08:50:25;59371.69;;;12.39;97.54
38054;BME280;23859;50.672;7.164;2023-04-08T08:52:52;59380.38;;;12.58;96.86
38054;BME280;23859;50.672;7.164;2023-04-08T08:55:19;59423.44;;;12.99;92.75
38054;BME280;23859;50.672;7.164;2023-04-08T08:57:48;59439.56;;;13.10;91.72
38054;BME280;23859;50.672;7.164;2023-04-08T09:00:15;59418.88;;;12.89;92.40
38054;BME280;23859;50.672;7.164;2023-04-08T09:02:42;59421.47;;;12.97;92.41
38054;BME280;23859;50.672;7.164;2023-04-08T09:05:08;59429.69;;;13.08;92.47
38054;BME280;23859;50.672;7.164;2023-04-08T09:07:35;59430.00;;;13.11;92.45
38054;BME280;23859;50.672;7.164;2023-04-08T09:10:02;59445.16;;;13.21;90.85
38054;BME280;23859;50.672;7.164;2023-04-08T09:12:29;59458.31;;;13.29;90.59
38054;BME280;23859;50.672;7.164;2023-04-08T09:15:09;59438.75;;;13.14;91.39
38054;BME280;23859;50.672;7.164;2023-04-08T09:17:37;59421.34;;;12.91;93.46
38054;BME280;23859;50.672;7.164;2023-04-08T09:20:05;59434.63;;;13.13;92.68
38054;BME280;23859;50.672;7.164;2023-04-08T09:22:59;59463.22;;;13.41;88.10
38054;BME280;23859;50.672;7.164;2023-04-08T09:25:27;59451.06;;;13.27;89.94
38054;BME280;23859;50.672;7.164;2023-04-08T09:27:53;59493.00;;;13.69;87.23
38054;BME280;23859;50.672;7.164;2023-04-08T09:30:23;59524.25;;;13.97;85.61
38054;BME280;23859;50.672;7.164;2023-04-08T09:32:51;59527.06;;;14.03;84.12
38054;BME280;23859;50.672;7.164;2023-04-08T09:35:19;59567.59;;;14.36;81.92
38054;BME280;23859;50.672;7.164;2023-04-08T09:37:45;59572.81;;;14.52;81.48
38054;BME280;23859;50.672;7.164;2023-04-08T09:40:12;59614.28;;;14.93;79.51
38054;BME280;23859;50.672;7.164;2023-04-08T09:42:43;59675.47;;;15.49;77.20
38054;BME280;23859;50.672;7.164;2023-04-08T09:45:10;59708.59;;;15.83;76.14
38054;BME280;23859;50.672;7.164;2023-04-08T09:50:16;59692.44;;;15.64;73.68
38054;BME280;23859;50.672;7.164;2023-04-08T09:52:44;59691.72;;;15.74;75.18
38054;BME280;23859;50.672;7.164;2023-04-08T09:55:12;59720.75;;;15.98;72.17
38054;BME280;23859;50.672;7.164;2023-04-08T09:57:43;59748.13;;;16.30;70.10
38054;BME280;23859;50.672;7.164;2023-04-08T10:05:12;59737.91;;;16.17;70.60
38054;BME280;23859;50.672;7.164;2023-04-08T10:07:40;59720.75;;;15.98;71.63
38054;BME280;23859;50.672;7.164;2023-04-08T10:10:08;59706.75;;;15.86;68.81
38054;BME280;23859;50.672;7.164;2023-04-08T10:12:36;59735.63;;;16.12;71.62
38054;BME280;23859;50.672;7.164;2023-04-08T10:15:27;59674.47;;;15.48;73.44
38054;BME280;23859;50.672;7.164;2023-04-08T10:23:02;59556.69;;;14.33;77.56
38054;BME280;23859;50.672;7.164;2023-04-08T10:25:35;59548.78;;;14.25;78.39
38054;BME280;23859;50.672;7.164;2023-04-08T10:28:22;59528.84;;;14.07;78.23
38054;BME280;23859;50.672;7.164;2023-04-08T10:30:53;59531.34;;;14.02;79.63
38054;BME280;23859;50.672;7.164;2023-04-08T10:35:59;59548.78;;;14.25;79.27
38054;BME280;23859;50.672;7.164;2023-04-08T10:38:25;59543.00;;;14.24;79.83
38054;BME280;23859;50.672;7.164;2023-04-08T10:40:53;59534.63;;;14.08;82.30
38054;BME280;23859;50.672;7.164;2023-04-08T10:43:19;59510.91;;;13.92;83.29
38054;BME280;23859;50.672;7.164;2023-04-08T10:45:45;59521.63;;;13.97;81.65
38054;BME280;23859;50.672;7.164;2023-04-08T10:48:23;59520.13;;;13.96;81.60
38054;BME280;23859;50.672;7.164;2023-04-08T10:50:54;59525.06;;;14.01;81.19
38054;BME280;23859;50.672;7.164;2023-04-08T10:53:25;59540.25;;;14.11;79.66
38054;BME280;23859;50.672;7.164;2023-04-08T10:55:53;59539.91;;;14.16;79.67
38054;BME280;23859;50.672;7.164;2023-04-08T10:58:19;59531.97;;;14.08;80.45
38054;BME280;23859;50.672;7.164;2023-04-08T11:00:45;59551.09;;;14.30;78.47
38054;BME280;23859;50.672;7.164;2023-04-08T11:03:11;59547.97;;;14.21;79.77
38054;BME280;23859;50.672;7.164;2023-04-08T11:05:38;59531.16;;;14.12;81.28
38054;BME280;23859;50.672;7.164;2023-04-08T11:08:04;59543.22;;;14.14;80.01
38054;BME280;23859;50.672;7.164;2023-04-08T11:10:37;59563.28;;;14.37;78.64
38054;BME280;23859;50.672;7.164;2023-04-08T11:13:07;59515.19;;;13.91;81.52
38054;BME280;23859;50.672;7.164;2023-04-08T11:15:35;59517.66;;;13.94;80.16
38054;BME280;23859;50.672;7.164;2023-04-08T11:18:03;59516.19;;;13.92;80.45
38054;BME280;23859;50.672;7.164;2023-04-08T11:20:30;59515.03;;;13.94;80.21
38054;BME280;23859;50.672;7.164;2023-04-08T11:22:57;59500.72;;;13.79;78.38
38054;BME280;23859;50.672;7.164;2023-04-08T11:25:23;59514.03;;;13.93;79.62
38054;BME280;23859;50.672;7.164;2023-04-08T11:27:49;59544.81;;;14.21;77.20
38054;BME280;23859;50.672;7.164;2023-04-08T11:30:15;59563.72;;;14.45;77.13
38054;BME280;23859;50.672;7.164;2023-04-08T11:32:41;59587.66;;;14.59;75.77
38054;BME280;23859;50.672;7.164;2023-04-08T11:35:07;59634.09;;;15.05;73.64
38054;BME280;23859;50.672;7.164;2023-04-08T11:37:40;59655.34;;;15.34;72.45
38054;BME280;23859;50.672;7.164;2023-04-08T11:40:11;59689.13;;;15.66;70.98
38054;BME280;23859;50.672;7.164;2023-04-08T11:42:38;59649.41;;;15.29;71.23
38054;BME280;23859;50.672;7.164;2023-04-08T11:45:11;59707.91;;;15.85;69.88
38054;BME280;23859;50.672;7.164;2023-04-08T11:47:38;59714.69;;;15.86;69.75
38054;BME280;23859;50.672;7.164;2023-04-08T11:50:05;59700.50;;;15.77;68.77
38054;BME280;23859;50.672;7.164;2023-04-08T11:52:47;59718.09;;;15.98;68.11
38054;BME280;23859;50.672;7.164;2023-04-08T11:55:28;59715.00;;;15.89;67.31
38054;BME280;23859;50.672;7.164;2023-04-08T11:57:55;59704.38;;;15.89;67.85
38054;BME280;23859;50.672;7.164;2023-04-08T12:00:22;59744.50;;;16.21;66.53
38054;BME280;23859;50.672;7.164;2023-04-08T12:02:49;59754.72;;;16.34;64.67
38054;BME280;23859;50.672;7.164;2023-04-08T12:05:16;59734.94;;;16.14;65.60
38054;BME280;23859;50.672;7.164;2023-04-08T12:07:43;59743.53;;;16.20;65.55
38054;BME280;23859;50.672;7.164;2023-04-08T12:10:10;59736.22;;;16.18;66.24
38054;BME280;23859;50.672;7.164;2023-04-08T12:12:36;59715.31;;;15.92;66.90
38054;BME280;23859;50.672;7.164;2023-04-08T12:15:03;59694.06;;;15.71;68.10
38054;BME280;23859;50.672;7.164;2023-04-08T12:17:29;59687.16;;;15.64;67.91
38054;BME280;23859;50.672;7.164;2023-04-08T12:19:55;59652.50;;;15.37;67.81
38054;BME280;23859;50.672;7.164;2023-04-08T12:22:23;59630.78;;;15.07;67.26
38054;BME280;23859;50.672;7.164;2023-04-08T12:24:49;59616.94;;;14.93;69.29
38054;BME280;23859;50.672;7.164;2023-04-08T12:27:15;59593.22;;;14.69;69.10
38054;BME280;23859;50.672;7.164;2023-04-08T12:29:41;59573.84;;;14.45;73.40
38054;BME280;23859;50.672;7.164;2023-04-08T12:32:08;59585.34;;;14.62;72.66
38054;BME280;23859;50.672;7.164;2023-04-08T12:34:34;59589.28;;;14.65;72.15
38054;BME280;23859;50.672;7.164;2023-04-08T12:37:00;59567.69;;;14.49;71.73
38054;BME280;23859;50.672;7.164;2023-04-08T12:39:27;59558.16;;;14.34;71.10
38054;BME280;23859;50.672;7.164;2023-04-08T12:41:53;59561.94;;;14.41;71.15
38054;BME280;23859;50.672;7.164;2023-04-08T12:44:19;59530.69;;;14.04;74.81
38054;BME280;23859;50.672;7.164;2023-04-08T12:46:45;59518.78;;;14.00;76.50
38054;BME280;23859;50.672;7.164;2023-04-08T12:49:11;59540.16;;;14.27;75.08
38054;BME280;23859;50.672;7.164;2023-04-08T12:51:38;59561.63;;;14.38;75.65
38054;BME280;23859;50.672;7.164;2023-04-08T12:54:04;59574.47;;;14.51;72.59
38054;BME280;23859;50.672;7.164;2023-04-08T12:56:31;59583.69;;;14.63;72.65
38054;BME280;23859;50.672;7.164;2023-04-08T12:58:58;59609.72;;;14.83;70.19
38054;BME280;23859;50.672;7.164;2023-04-08T13:01:24;59617.56;;;14.99;69.22
38054;BME280;23859;50.672;7.164;2023-04-08T13:03:50;59635.03;;;15.14;67.68
38054;BME280;23859;50.672;7.164;2023-04-08T13:06:16;59605.41;;;14.84;68.37
38054;BME280;23859;50.672;7.164;2023-04-08T13:08:42;59615.47;;;14.92;67.75
38054;BME280;23859;50.672;7.164;2023-04-08T13:11:08;59604.41;;;14.83;68.80
38054;BME280;23859;50.672;7.164;2023-04-08T13:13:35;59587.13;;;14.66;71.91
38054;BME280;23859;50.672;7.164;2023-04-08T13:16:01;59604.09;;;14.80;67.30
38054;BME280;23859;50.672;7.164;2023-04-08T13:18:28;59601.00;;;14.72;69.43
38054;BME280;23859;50.672;7.164;2023-04-08T13:20:55;59581.22;;;14.60;68.70